createdAt,value
2018-11-25T00:01:35.603Z,13.77
2018-11-25T00:04:03.783Z,12.60
2018-11-25T00:06:32.867Z,15.13
2018-11-25T00:09:01.414Z,15.70
2018-11-25T00:11:29.579Z,13.50
2018-11-25T00:13:58.400Z,13.30
2018-11-25T00:16:26.574Z,11.70
2018-11-25T00:18:54.743Z,12.70
2018-11-25T00:21:22.899Z,12.63
2018-11-25T00:23:51.291Z,12.27
2018-11-25T00:26:19.455Z,12.57
2018-11-25T00:28:47.619Z,13.47
2018-11-25T00:31:15.824Z,12.97
2018-11-25T00:33:44.013Z,14.20
2018-11-25T00:36:12.186Z,12.57
2018-11-25T00:38:40.388Z,13.57
2018-11-25T00:41:08.555Z,13.20
2018-11-25T00:43:36.740Z,13.80
2018-11-25T00:46:05.053Z,12.40
2018-11-25T00:48:33.227Z,13.50
2018-11-25T00:51:01.396Z,13.07
2018-11-25T00:53:29.596Z,13.50
2018-11-25T00:55:57.768Z,11.60
2018-11-25T00:58:25.960Z,12.80
2018-11-25T01:00:54.126Z,12.13
2018-11-25T01:03:22.319Z,13.07
2018-11-25T01:05:50.471Z,13.90
2018-11-25T01:08:18.643Z,12.70
2018-11-25T01:10:46.807Z,11.83
2018-11-25T01:13:15.028Z,12.90
2018-11-25T01:15:43.179Z,12.50
2018-11-25T01:18:11.396Z,12.23
2018-11-25T01:20:39.554Z,12.07
2018-11-25T01:23:07.763Z,13.23
2018-11-25T01:25:35.910Z,12.53
2018-11-25T01:28:04.091Z,12.87
2018-11-25T01:30:32.386Z,12.10
2018-11-25T01:33:00.559Z,12.13
2018-11-25T01:35:28.711Z,13.10
2018-11-25T01:37:56.897Z,11.50
2018-11-25T01:40:25.065Z,12.00
2018-11-25T01:42:53.255Z,11.87
2018-11-25T01:45:21.418Z,12.10
2018-11-25T01:47:50.019Z,12.50
2018-11-25T01:50:18.411Z,13.53
2018-11-25T01:52:46.771Z,11.20
2018-11-25T01:55:16.263Z,12.93
2018-11-25T01:57:44.452Z,10.40
2018-11-25T02:00:15.020Z,12.83
2018-11-25T02:02:43.199Z,12.20
2018-11-25T02:05:11.411Z,13.40
2018-11-25T02:07:39.586Z,12.70
2018-11-25T02:10:08.776Z,12.37
2018-11-25T02:12:36.959Z,12.30
2018-11-25T02:15:06.207Z,11.63
2018-11-25T02:17:34.367Z,12.37
2018-11-25T02:20:02.740Z,12.40
2018-11-25T02:22:30.919Z,13.07
2018-11-25T02:24:59.134Z,12.23
2018-11-25T02:27:27.296Z,12.03
2018-11-25T02:29:55.468Z,11.87
2018-11-25T02:32:23.637Z,12.00
2018-11-25T02:34:51.851Z,11.53
2018-11-25T02:37:19.999Z,12.07
2018-11-25T02:39:48.180Z,11.87
2018-11-25T02:42:16.336Z,12.10
2018-11-25T02:44:44.528Z,12.83
2018-11-25T02:47:12.675Z,12.17
2018-11-25T02:49:40.851Z,11.93
2018-11-25T02:52:09.015Z,12.60
2018-11-25T02:54:37.192Z,11.67
2018-11-25T02:57:05.435Z,12.10
2018-11-25T02:59:33.602Z,11.50
2018-11-25T03:02:01.791Z,12.10
2018-11-25T03:04:29.989Z,12.80
2018-11-25T03:06:58.161Z,11.40
2018-11-25T03:09:26.335Z,11.50
2018-11-25T03:11:54.510Z,12.80
2018-11-25T03:14:22.708Z,12.87
2018-11-25T03:16:50.875Z,12.50
2018-11-25T03:19:19.043Z,13.37
2018-11-25T03:21:47.191Z,11.83
2018-11-25T03:24:15.384Z,12.40
2018-11-25T03:26:43.531Z,11.87
2018-11-25T03:29:11.712Z,12.93
2018-11-25T03:31:39.904Z,12.20
2018-11-25T03:34:08.080Z,12.33
2018-11-25T03:36:36.253Z,12.07
2018-11-25T03:39:05.667Z,11.90
2018-11-25T03:41:34.171Z,11.70
2018-11-25T03:44:02.336Z,11.47
2018-11-25T03:46:30.528Z,10.60
2018-11-25T03:48:58.698Z,11.97
2018-11-25T03:51:26.900Z,12.20
2018-11-25T03:53:55.071Z,11.40
2018-11-25T03:56:23.632Z,10.87
2018-11-25T03:58:51.786Z,11.30
2018-11-25T04:01:20.003Z,11.83
2018-11-25T04:03:48.159Z,12.30
2018-11-25T04:06:16.364Z,12.97
2018-11-25T04:08:44.535Z,12.00
2018-11-25T04:11:12.742Z,12.27
2018-11-25T04:13:40.904Z,11.67
2018-11-25T04:16:09.072Z,12.20
2018-11-25T04:18:37.248Z,10.77
2018-11-25T04:21:05.687Z,11.10
2018-11-25T04:23:33.851Z,12.43
2018-11-25T04:26:02.053Z,11.70
2018-11-25T04:28:30.237Z,12.40
2018-11-25T04:30:58.419Z,13.00
2018-11-25T04:33:26.587Z,11.13
2018-11-25T04:35:55.607Z,12.50
2018-11-25T04:38:23.783Z,13.20
2018-11-25T04:40:51.972Z,12.57
2018-11-25T04:43:20.375Z,12.67
2018-11-25T04:45:48.573Z,11.97
2018-11-25T04:48:16.719Z,11.53
2018-11-25T04:50:44.912Z,11.77
2018-11-25T04:53:13.078Z,11.00
2018-11-25T04:55:42.020Z,11.40
2018-11-25T04:58:10.217Z,11.90
2018-11-25T05:00:38.404Z,12.30
2018-11-25T05:03:06.583Z,11.80
2018-11-25T05:05:34.778Z,12.33
2018-11-25T05:08:02.963Z,12.37
2018-11-25T05:10:31.140Z,11.13
2018-11-25T05:14:23.729Z,12.50
2018-11-25T05:16:51.899Z,11.83
2018-11-25T05:19:20.082Z,13.20
2018-11-25T05:21:48.275Z,11.37
2018-11-25T05:24:16.444Z,12.27
2018-11-25T05:26:44.698Z,12.27
2018-11-25T05:29:12.852Z,12.27
2018-11-25T05:31:41.042Z,13.50
2018-11-25T05:34:09.218Z,11.10
2018-11-25T05:36:37.382Z,12.77
2018-11-25T05:39:07.208Z,12.60
2018-11-25T05:41:35.387Z,11.10
2018-11-25T05:44:04.181Z,12.40
2018-11-25T05:46:32.359Z,11.57
2018-11-25T05:49:00.523Z,11.87
2018-11-25T05:51:28.734Z,12.27
2018-11-25T05:53:56.906Z,11.50
2018-11-25T05:56:25.096Z,11.73
2018-11-25T05:58:53.271Z,12.27
2018-11-25T06:01:21.456Z,13.30
2018-11-25T06:03:49.611Z,11.50
2018-11-25T06:06:17.783Z,12.03
2018-11-25T06:08:45.968Z,11.00
2018-11-25T06:11:14.147Z,11.77
2018-11-25T06:13:42.307Z,12.40
2018-11-25T06:16:10.832Z,12.03
2018-11-25T06:18:39.019Z,12.80
2018-11-25T06:21:07.259Z,12.00
2018-11-25T06:23:35.459Z,12.90
2018-11-25T06:26:03.614Z,13.27
2018-11-25T06:28:31.848Z,12.53
2018-11-25T06:30:59.999Z,12.43
2018-11-25T06:33:28.263Z,11.90
2018-11-25T06:35:56.413Z,12.13
2018-11-25T06:38:24.609Z,11.60
2018-11-25T06:40:52.809Z,13.50
2018-11-25T06:43:21.022Z,13.20
2018-11-25T06:45:49.184Z,13.27
2018-11-25T06:48:17.374Z,13.63
2018-11-25T06:50:45.529Z,12.70
2018-11-25T06:53:13.713Z,12.87
2018-11-25T06:55:41.877Z,13.80
2018-11-25T06:58:10.056Z,12.33
2018-11-25T07:00:38.599Z,13.90
2018-11-25T07:03:06.785Z,14.93
2018-11-25T07:05:34.960Z,18.07
2018-11-25T07:08:03.164Z,13.63
2018-11-25T07:10:31.316Z,14.13
2018-11-25T07:12:59.502Z,14.60
2018-11-25T07:15:27.679Z,13.40
2018-11-25T07:17:55.884Z,14.03
2018-11-25T07:20:24.051Z,13.80
2018-11-25T07:22:52.240Z,14.17
2018-11-25T07:25:21.802Z,14.23
2018-11-25T07:27:50.027Z,14.40
2018-11-25T07:30:22.699Z,14.40
2018-11-25T07:32:50.899Z,15.20
2018-11-25T07:35:19.050Z,15.83
2018-11-25T07:37:47.219Z,15.33
2018-11-25T07:40:15.943Z,15.50
2018-11-25T07:42:44.143Z,14.60
2018-11-25T07:45:12.855Z,16.30
2018-11-25T07:47:41.021Z,14.20
2018-11-25T07:50:09.709Z,13.63
2018-11-25T07:52:37.879Z,16.83
2018-11-25T07:55:12.498Z,14.40
2018-11-25T07:57:40.736Z,14.83
2018-11-25T08:00:15.949Z,17.80
2018-11-25T08:02:44.223Z,16.87
2018-11-25T08:05:12.944Z,13.77
2018-11-25T08:07:41.087Z,13.00
2018-11-25T08:10:10.820Z,13.60
2018-11-25T08:12:39.024Z,13.17
2018-11-25T08:15:09.819Z,15.83
2018-11-25T08:17:38.055Z,13.20
2018-11-25T08:20:09.153Z,13.40
2018-11-25T08:22:37.334Z,13.33
2018-11-25T08:25:06.904Z,13.77
2018-11-25T08:27:35.071Z,13.87
2018-11-25T08:30:03.343Z,13.27
2018-11-25T08:32:31.499Z,12.67
2018-11-25T08:34:59.675Z,10.83
2018-11-25T08:37:27.927Z,13.90
2018-11-25T08:39:56.116Z,14.80
2018-11-25T08:42:24.293Z,12.37
2018-11-25T08:44:54.050Z,13.13
2018-11-25T08:47:21.096Z,14.00
2018-11-25T08:49:49.288Z,13.30
2018-11-25T08:52:17.476Z,13.40
2018-11-25T08:54:45.664Z,13.40
2018-11-25T08:57:13.819Z,13.80
2018-11-25T08:59:41.986Z,14.50
2018-11-25T09:02:10.147Z,14.77
2018-11-25T09:04:38.332Z,15.70
2018-11-25T09:07:06.504Z,13.77
2018-11-25T09:09:34.681Z,15.50
2018-11-25T09:12:03.079Z,15.50
2018-11-25T09:14:31.283Z,15.00
2018-11-25T09:16:59.451Z,15.63
2018-11-25T09:19:27.639Z,13.03
2018-11-25T09:21:55.776Z,13.40
2018-11-25T09:24:23.943Z,14.53
2018-11-25T09:26:52.103Z,14.37
2018-11-25T09:29:20.526Z,14.23
2018-11-25T09:31:48.692Z,14.00
2018-11-25T09:34:16.897Z,14.13
2018-11-25T09:36:45.059Z,15.67
2018-11-25T09:39:13.508Z,14.10
2018-11-25T09:41:41.688Z,13.80
2018-11-25T09:44:09.834Z,14.90
2018-11-25T09:46:42.566Z,14.40
2018-11-25T09:49:06.504Z,13.70
2018-11-25T09:51:34.685Z,14.53
2018-11-25T09:54:03.088Z,14.57
2018-11-25T09:56:31.315Z,15.63
2018-11-25T09:58:59.484Z,15.30
2018-11-25T10:01:27.655Z,14.57
2018-11-25T10:03:55.836Z,15.53
2018-11-25T10:06:24.017Z,14.40
2018-11-25T10:08:52.695Z,15.03
2018-11-25T10:11:21.729Z,14.70
2018-11-25T10:13:49.887Z,15.90
2018-11-25T10:16:18.071Z,15.23
2018-11-25T10:18:46.219Z,16.43
2018-11-25T10:21:14.724Z,14.30
2018-11-25T10:23:42.876Z,15.47
2018-11-25T10:26:11.296Z,15.30
2018-11-25T10:28:39.461Z,14.23
2018-11-25T10:31:07.641Z,14.40
2018-11-25T10:33:35.826Z,16.37
2018-11-25T10:36:04.602Z,14.93
2018-11-25T10:38:32.208Z,14.50
2018-11-25T10:41:00.374Z,13.90
2018-11-25T10:43:28.552Z,14.03
2018-11-25T10:45:56.732Z,14.60
2018-11-25T10:48:24.908Z,13.83
2018-11-25T10:50:53.088Z,13.70
2018-11-25T10:53:21.260Z,14.50
2018-11-25T10:55:49.439Z,12.43
2018-11-25T10:58:17.595Z,12.77
2018-11-25T11:00:51.143Z,13.33
2018-11-25T11:03:24.676Z,12.43
2018-11-25T11:05:53.930Z,12.27
2018-11-25T11:08:22.103Z,11.57
2018-11-25T11:10:50.335Z,14.00
2018-11-25T11:13:18.496Z,13.60
2018-11-25T11:15:46.691Z,14.30
2018-11-25T11:18:14.859Z,13.40
2018-11-25T11:20:43.060Z,13.33
2018-11-25T11:23:11.247Z,13.57
2018-11-25T11:25:39.780Z,13.43
2018-11-25T11:28:08.041Z,13.87
2018-11-25T11:30:36.609Z,13.50
2018-11-25T11:33:04.945Z,13.17
2018-11-25T11:35:33.494Z,14.43
2018-11-25T11:38:01.671Z,14.17
2018-11-25T11:40:30.243Z,13.27
2018-11-25T11:42:58.430Z,13.33
2018-11-25T11:45:26.600Z,13.17
2018-11-25T11:47:55.032Z,13.70
2018-11-25T11:50:23.623Z,15.60
2018-11-25T11:52:52.184Z,13.03
2018-11-25T11:55:20.720Z,12.60
2018-11-25T11:57:49.283Z,12.00
2018-11-25T12:00:20.187Z,12.47
2018-11-25T12:02:48.743Z,11.60
2018-11-25T12:05:17.029Z,11.40
2018-11-25T12:07:45.265Z,10.67
2018-11-25T12:10:14.255Z,15.87
2018-11-25T12:12:42.431Z,12.23
2018-11-25T12:15:12.704Z,11.37
2018-11-25T12:17:40.886Z,10.13
2018-11-25T12:20:11.149Z,10.20
2018-11-25T12:22:40.283Z,10.30
2018-11-25T12:25:09.558Z,10.40
2018-11-25T12:27:39.079Z,10.37
2018-11-25T12:30:10.023Z,9.63
2018-11-25T12:32:39.018Z,10.00
2018-11-25T12:35:08.620Z,9.87
2018-11-25T12:37:37.093Z,9.17
2018-11-25T12:40:11.211Z,9.47
2018-11-25T12:42:39.676Z,9.87
2018-11-25T12:45:10.029Z,10.47
2018-11-25T12:47:38.252Z,8.13
2018-11-25T12:50:07.695Z,6.83
2018-11-25T12:52:36.372Z,6.43
2018-11-25T12:55:05.423Z,7.60
2018-11-25T12:57:34.695Z,7.40
2018-11-25T13:00:04.748Z,6.90
2018-11-25T13:02:33.844Z,6.83
2018-11-25T13:05:02.561Z,6.40
2018-11-25T13:07:33.161Z,6.00
2018-11-25T13:10:02.508Z,7.00
2018-11-25T13:12:32.033Z,6.50
2018-11-25T13:15:02.076Z,6.40
2018-11-25T13:17:32.198Z,6.20
2018-11-25T13:20:02.103Z,5.93
2018-11-25T13:22:31.180Z,6.20
2018-11-25T13:25:01.646Z,8.03
2018-11-25T13:27:30.996Z,31.40
2018-11-25T13:29:59.973Z,7.90
2018-11-25T13:32:28.740Z,8.03
2018-11-25T13:34:57.703Z,7.30
2018-11-25T13:37:27.267Z,6.50
2018-11-25T13:39:57.597Z,7.47
2018-11-25T13:42:26.218Z,6.30
2018-11-25T13:44:53.862Z,6.30
2018-11-25T13:47:23.857Z,7.40
2018-11-25T13:49:50.940Z,6.27
2018-11-25T13:52:19.340Z,6.47
2018-11-25T13:54:47.511Z,6.30
2018-11-25T13:57:15.672Z,6.70
2018-11-25T13:59:43.845Z,5.87
2018-11-25T14:02:11.992Z,6.70
2018-11-25T14:04:40.163Z,6.07
2018-11-25T14:07:08.314Z,6.10
2018-11-25T14:09:36.491Z,6.20
2018-11-25T14:12:04.743Z,6.00
2018-11-25T14:14:32.915Z,6.40
2018-11-25T14:17:01.407Z,6.43
2018-11-25T14:19:29.583Z,8.60
2018-11-25T14:21:57.760Z,8.10
2018-11-25T14:24:26.376Z,8.10
2018-11-25T14:26:55.470Z,7.60
2018-11-25T14:29:23.686Z,8.13
2018-11-25T14:31:51.844Z,8.63
2018-11-25T14:34:20.011Z,8.60
2018-11-25T14:36:48.165Z,8.70
2018-11-25T14:39:16.747Z,7.70
2018-11-25T14:41:44.929Z,7.50
2018-11-25T14:44:13.161Z,7.60
2018-11-25T14:46:41.337Z,9.00
2018-11-25T14:49:09.527Z,8.33
2018-11-25T14:51:37.695Z,8.40
2018-11-25T14:54:05.947Z,7.90
2018-11-25T14:56:34.103Z,7.80
2018-11-25T14:59:02.278Z,8.47
2018-11-25T15:01:30.451Z,8.90
2018-11-25T15:03:58.651Z,8.80
2018-11-25T15:06:29.387Z,9.40
2018-11-25T15:08:55.682Z,8.50
2018-11-25T15:11:24.165Z,9.03
2018-11-25T15:13:52.340Z,8.43
2018-11-25T15:16:20.614Z,8.70
2018-11-25T15:18:48.792Z,8.77
2018-11-25T15:21:17.014Z,8.70
2018-11-25T15:23:45.175Z,8.33
2018-11-25T15:26:14.443Z,8.70
2018-11-25T15:28:42.607Z,9.10
2018-11-25T15:31:10.993Z,9.80
2018-11-25T15:33:39.150Z,8.90
2018-11-25T15:36:07.465Z,9.50
2018-11-25T15:38:35.900Z,9.27
2018-11-25T15:41:04.820Z,9.23
2018-11-25T15:43:33.288Z,10.40
2018-11-25T15:46:01.754Z,11.03
2018-11-25T15:48:30.670Z,9.90
2018-11-25T15:50:59.139Z,9.90
2018-11-25T15:53:27.329Z,10.93
2018-11-25T15:55:57.398Z,11.33
2018-11-25T15:58:25.833Z,11.30
2018-11-25T16:00:54.058Z,10.60
2018-11-25T16:03:22.267Z,9.30
2018-11-25T16:05:51.783Z,11.17
2018-11-25T16:08:19.966Z,11.30
2018-11-25T16:10:48.159Z,10.03
2018-11-25T16:13:16.345Z,10.70
2018-11-25T16:15:44.548Z,10.90
2018-11-25T16:18:12.753Z,9.53
2018-11-25T16:20:40.946Z,10.30
2018-11-25T16:23:10.033Z,9.47
2018-11-25T16:25:39.326Z,10.37
2018-11-25T16:28:09.539Z,10.37
2018-11-25T16:30:37.729Z,9.87
2018-11-25T16:33:05.938Z,9.80
2018-11-25T16:35:35.094Z,17.20
2018-11-25T16:38:04.344Z,13.47
2018-11-25T16:40:32.920Z,13.27
2018-11-25T16:43:01.100Z,13.17
2018-11-25T16:45:29.371Z,11.10
2018-11-25T16:47:57.531Z,12.60
2018-11-25T16:50:25.744Z,10.63
2018-11-25T16:52:53.891Z,13.67
2018-11-25T16:55:22.079Z,12.47
2018-11-25T16:57:50.401Z,11.97
2018-11-25T17:00:19.108Z,13.60
2018-11-25T17:02:47.639Z,12.03
2018-11-25T17:05:17.438Z,11.17
2018-11-25T17:07:46.084Z,11.67
2018-11-25T17:10:14.248Z,13.07
2018-11-25T17:12:42.455Z,11.50
2018-11-25T17:15:13.372Z,12.13
2018-11-25T17:17:41.572Z,11.77
2018-11-25T17:20:09.791Z,10.73
2018-11-25T17:22:38.193Z,11.30
2018-11-25T17:25:07.335Z,11.50
2018-11-25T17:27:35.519Z,10.60
2018-11-25T17:30:04.723Z,9.90
2018-11-25T17:32:32.916Z,10.50
2018-11-25T17:35:01.079Z,11.00
2018-11-25T17:37:29.283Z,10.27
2018-11-25T17:39:57.483Z,10.77
2018-11-25T17:42:25.663Z,10.77
2018-11-25T17:44:53.827Z,10.40
2018-11-25T17:47:22.019Z,10.63
2018-11-25T17:49:50.180Z,10.53
2018-11-25T17:52:18.367Z,10.97
2018-11-25T17:54:46.520Z,12.13
2018-11-25T17:57:14.735Z,12.10
2018-11-25T17:59:42.917Z,11.83
2018-11-25T18:02:11.094Z,12.13
2018-11-25T18:04:39.247Z,11.10
2018-11-25T18:07:07.420Z,11.30
2018-11-25T18:09:35.596Z,13.57
2018-11-25T18:13:28.176Z,13.77
2018-11-25T18:15:57.063Z,13.87
2018-11-25T18:18:28.003Z,15.27
2018-11-25T18:20:57.350Z,18.60
2018-11-25T18:23:25.546Z,15.80
2018-11-25T18:25:53.706Z,19.07
2018-11-25T18:28:21.910Z,17.47
2018-11-25T18:30:50.091Z,18.73
2018-11-25T18:33:18.288Z,15.53
2018-11-25T18:35:46.433Z,14.70
2018-11-25T18:38:14.611Z,14.77
2018-11-25T18:40:42.784Z,13.00
2018-11-25T18:43:10.976Z,14.10
2018-11-25T18:45:39.131Z,14.50
2018-11-25T18:48:08.157Z,14.30
2018-11-25T18:50:36.313Z,14.73
2018-11-25T18:53:04.528Z,16.57
2018-11-25T18:55:32.172Z,21.30
2018-11-25T18:58:00.344Z,14.70
2018-11-25T19:00:33.536Z,17.03
2018-11-25T19:03:01.720Z,15.17
2018-11-25T19:05:29.883Z,18.13
2018-11-25T19:07:58.103Z,19.27
2018-11-25T19:10:26.271Z,20.10
2018-11-25T19:12:54.464Z,34.67
2018-11-25T19:15:22.636Z,32.77
2018-11-25T19:17:50.840Z,16.97
2018-11-25T19:20:19.892Z,14.17
2018-11-25T19:22:48.091Z,15.30
2018-11-25T19:25:16.763Z,15.07
2018-11-25T19:27:45.399Z,14.40
2018-11-25T19:30:13.916Z,14.30
2018-11-25T19:32:42.447Z,15.30
2018-11-25T19:35:11.115Z,13.80
2018-11-25T19:37:40.700Z,12.67
2018-11-25T19:40:10.583Z,14.80
2018-11-25T19:42:38.852Z,11.77
2018-11-25T19:45:08.443Z,13.17
2018-11-25T19:47:36.615Z,13.43
2018-11-25T19:50:06.487Z,12.53
2018-11-25T19:52:34.650Z,12.80
2018-11-25T19:55:02.835Z,12.47
2018-11-25T19:57:31.015Z,12.80
2018-11-25T20:00:00.041Z,13.17
2018-11-25T20:02:28.263Z,12.83
2018-11-25T20:04:56.455Z,11.77
2018-11-25T20:07:24.645Z,13.70
2018-11-25T20:09:52.843Z,13.87
2018-11-25T20:12:25.320Z,13.83
2018-11-25T20:14:53.503Z,12.50
2018-11-25T20:17:28.828Z,12.50
2018-11-25T20:19:57.014Z,13.60
2018-11-25T20:22:26.368Z,13.00
2018-11-25T20:24:54.546Z,11.37
2018-11-25T20:27:27.967Z,12.90
2018-11-25T20:29:56.146Z,13.30
2018-11-25T20:32:29.675Z,11.63
2018-11-25T20:34:57.844Z,11.47
2018-11-25T20:37:27.017Z,12.33
2018-11-25T20:39:54.279Z,12.97
2018-11-25T20:42:22.788Z,11.47
2018-11-25T20:44:50.971Z,11.93
2018-11-25T20:47:19.130Z,12.43
2018-11-25T20:49:47.317Z,11.20
2018-11-25T20:54:27.728Z,11.73
2018-11-25T20:56:55.867Z,12.40
2018-11-25T20:59:24.045Z,12.00
2018-11-25T21:01:52.192Z,11.37
2018-11-25T21:04:20.355Z,10.60
2018-11-25T21:06:48.516Z,11.67
2018-11-25T21:09:16.711Z,10.50
2018-11-25T21:11:44.879Z,12.27
2018-11-25T21:14:13.036Z,11.43
2018-11-25T21:16:41.214Z,11.40
2018-11-25T21:19:09.364Z,11.40
2018-11-25T21:21:37.543Z,11.73
2018-11-25T21:24:05.728Z,12.00
2018-11-25T21:26:33.923Z,13.33
2018-11-25T21:29:02.068Z,12.87
2018-11-25T21:31:30.252Z,12.53
2018-11-25T21:33:58.415Z,13.20
2018-11-25T21:36:26.620Z,13.73
2018-11-25T21:38:54.769Z,13.00
2018-11-25T21:41:23.018Z,13.37
2018-11-25T21:43:51.160Z,13.07
2018-11-25T21:46:19.341Z,12.20
2018-11-25T21:48:47.605Z,12.40
2018-11-25T21:51:15.788Z,12.43
2018-11-25T21:53:43.948Z,12.83
2018-11-25T21:56:14.418Z,13.43
2018-11-25T21:58:40.559Z,14.00
2018-11-25T22:01:08.751Z,13.13
2018-11-25T22:03:36.928Z,13.00
2018-11-25T22:06:05.216Z,12.30
2018-11-25T22:08:33.368Z,11.90
2018-11-25T22:11:01.545Z,15.43
2018-11-25T22:13:29.699Z,14.03
2018-11-25T22:15:57.896Z,13.73
2018-11-25T22:18:26.059Z,13.13
2018-11-25T22:20:54.454Z,12.23
2018-11-25T22:23:22.615Z,12.30
2018-11-25T22:25:50.785Z,12.67
2018-11-25T22:28:18.946Z,12.83
2018-11-25T22:30:47.131Z,14.93
2018-11-25T22:33:15.292Z,12.93
2018-11-25T22:35:43.483Z,15.50
2018-11-25T22:38:11.636Z,13.90
2018-11-25T22:40:39.804Z,12.73
2018-11-25T22:43:08.000Z,15.93
2018-11-25T22:45:36.167Z,13.67
2018-11-25T22:48:04.307Z,13.60
2018-11-25T22:50:32.456Z,12.87
2018-11-25T22:53:00.982Z,14.17
2018-11-25T22:55:29.157Z,13.23
2018-11-25T22:57:57.340Z,13.00
2018-11-25T23:00:31.259Z,14.20
2018-11-25T23:02:59.453Z,13.53
2018-11-25T23:05:33.206Z,13.40
2018-11-25T23:08:01.435Z,13.33
2018-11-25T23:10:29.584Z,14.80
2018-11-25T23:12:57.760Z,14.00
2018-11-25T23:15:25.919Z,14.87
2018-11-25T23:17:54.101Z,15.40
2018-11-25T23:20:22.272Z,15.10
2018-11-25T23:22:50.447Z,14.27
2018-11-25T23:25:18.617Z,14.43
2018-11-25T23:27:46.794Z,15.13
2018-11-25T23:30:14.956Z,14.77
2018-11-25T23:32:43.120Z,14.20
2018-11-25T23:35:12.832Z,15.23
2018-11-25T23:37:41.030Z,14.70
2018-11-25T23:40:09.582Z,14.33
2018-11-25T23:42:37.783Z,14.30
2018-11-25T23:45:06.807Z,13.93
2018-11-25T23:47:34.979Z,13.83
2018-11-25T23:50:03.158Z,15.23
2018-11-25T23:52:31.344Z,15.13
2018-11-25T23:54:59.495Z,14.70
2018-11-25T23:57:27.662Z,14.17
2018-11-25T23:59:56.183Z,14.80
